Portada
METAR-TAF:

METAR-TAF

Aeroports :

Wanaham

Lifou, Nova Caledònia

latitud: 20-46S, longitud: 167-14E, altitud: 28 m

METAR: manca

Hora: 04:46 (17:46 UTC)

Pronòstic

L'informe es va fer fa 46 minuts, a les 17:00 UTC
Pronòstic vàlid del 25 a les 18 UTC al 26 a les 18 UTC
Vent 3 kt amb direcció variable
Visibilitat 10 km o més
Núvols disperses a una alçada de 1500 ft
Cel ennuvolat a una alçada de 6000 ft
Probabilitat 40% :
Temporalment
l' 25 a les 18 UTC al 25 a les 24 UTC
Cel ennuvolat a una alçada de 1200 ft
Escasses núvols a una alçada de 1800 ft, Cumulus congestus.
xàfecs de pluja

TAF: NWWL 251700Z 2518/2618 VRB03KT 9999 SCT015 BKN060 PROB40 TEMPO 2518/2524 SHRA BKN012 FEW018TCU

Observacions i pronòstics meteorològics de més de 4000 aeroports (METAR i TAF).

Les estacions disponibles són els punts grocs i vermells al mapa.

Posi el ratolí al punt desitjat per veure el nom de l'estació.

Feu clic per veure les observacions i els pronòstics meteorològics.

Per canviar el mapa: feu clic els botons verds amb una creu de color negre per apropar; al botó verd amb un guió per allunyar la imatge; o en les fletxes verdes per a mapes adjacents.


METAR-TAF: